TimeAKST,TemperatureF,Dew PointF,Humidity,Sea Level PressureIn,VisibilityMPH,Wind Direction,Wind SpeedMPH,Gust SpeedMPH,PrecipitationIn,Events,Conditions,WindDirDegrees,DateUTC
12:53 AM,-0.9,-5.1,83,30.48,10.0,Calm,Calm,-,N/A,,Clear,0,2013-03-05 09:53:00
1:53 AM,-0.9,-6.0,79,30.47,10.0,NW,3.5,-,N/A,,Clear,320,2013-03-05 10:53:00
3:53 AM,3.0,-0.9,84,30.41,10.0,North,4.6,-,N/A,,Clear,350,2013-03-05 12:53:00
4:53 AM,3.9,1.0,88,30.40,10.0,NNW,3.5,-,N/A,,Overcast,340,2013-03-05 13:53:00
5:53 AM,5.0,1.0,84,30.39,10.0,North,4.6,-,N/A,,Overcast,350,2013-03-05 14:53:00
6:53 AM,3.9,1.0,88,30.40,10.0,NW,3.5,-,N/A,,Mostly Cloudy,320,2013-03-05 15:53:00
7:53 AM,3.0,-0.9,84,30.39,10.0,NNW,4.6,-,N/A,,Overcast,330,2013-03-05 16:53:00
8:53 AM,5.0,1.0,84,30.37,10.0,Calm,Calm,-,N/A,,Overcast,0,2013-03-05 17:53:00
9:53 AM,9.0,1.9,73,30.35,10.0,Calm,Calm,-,N/A,,Mostly Cloudy,0,2013-03-05 18:53:00
10:53 AM,15.1,3.9,61,30.32,10.0,Calm,Calm,-,N/A,,Mostly Cloudy,0,2013-03-05 19:53:00
11:53 AM,15.1,6.1,68,30.30,10.0,Calm,Calm,-,N/A,,Scattered Clouds,0,2013-03-05 20:53:00
12:53 PM,19.0,8.1,62,30.27,10.0,SE,3.5,-,N/A,,Scattered Clouds,140,2013-03-05 21:53:00
1:53 PM,21.9,10.0,60,30.23,10.0,Calm,Calm,-,N/A,,Scattered Clouds,0,2013-03-05 22:53:00
2:53 PM,24.1,10.0,55,30.21,10.0,Calm,Calm,-,N/A,,Scattered Clouds,0,2013-03-05 23:53:00
3:53 PM,27.0,10.0,49,30.17,10.0,Calm,Calm,-,N/A,,Scattered Clouds,0,2013-03-06 00:53:00
4:53 PM,25.0,9.0,51,30.15,10.0,Calm,Calm,-,N/A,,Scattered Clouds,0,2013-03-06 01:53:00
5:53 PM,24.1,9.0,53,30.13,10.0,SW,3.5,-,N/A,,Scattered Clouds,220,2013-03-06 02:53:00
6:53 PM,15.1,8.1,74,30.14,10.0,Calm,Calm,-,N/A,,Partly Cloudy,0,2013-03-06 03:53:00
7:53 PM,9.0,3.0,77,30.14,10.0,Calm,Calm,-,N/A,,Partly Cloudy,0,2013-03-06 04:53:00
8:53 PM,6.1,1.0,80,30.14,10.0,Calm,Calm,-,N/A,,Partly Cloudy,0,2013-03-06 05:53:00
9:26 PM,3.9,-0.0,84,29.96,10.0,Calm,Calm,-,N/A,,Partly Cloudy,0,2013-03-06 06:26:00
9:53 PM,3.0,-2.0,80,30.12,10.0,Calm,Calm,-,N/A,,Clear,0,2013-03-06 06:53:00
10:53 PM,-0.0,-4.0,83,30.12,10.0,Calm,Calm,-,N/A,,Clear,0,2013-03-06 07:53:00
11:53 PM,-2.0,-6.0,83,30.11,10.0,Calm,Calm,-,N/A,,Clear,0,2013-03-06 08:53:00